createdAt,value
2018-02-13T00:00:46.326Z,961.48
2018-02-13T00:01:46.317Z,961.54
2018-02-13T00:02:46.312Z,961.52
2018-02-13T00:03:46.298Z,961.57
2018-02-13T00:04:46.284Z,961.57
2018-02-13T00:05:46.276Z,961.53
2018-02-13T00:06:46.281Z,961.53
2018-02-13T00:07:46.258Z,961.51
2018-02-13T00:08:46.285Z,961.54
2018-02-13T00:09:46.234Z,961.53
2018-02-13T00:10:46.237Z,961.58
2018-02-13T00:11:46.216Z,961.58
2018-02-13T00:12:46.206Z,961.57
2018-02-13T00:13:46.197Z,961.58
2018-02-13T00:14:46.193Z,961.55
2018-02-13T00:15:46.175Z,961.59
2018-02-13T00:16:46.169Z,961.60
2018-02-13T00:17:46.160Z,961.56
2018-02-13T00:18:46.168Z,961.60
2018-02-13T00:19:46.137Z,961.59
2018-02-13T00:20:46.130Z,961.54
2018-02-13T00:21:46.122Z,961.53
2018-02-13T00:22:46.108Z,961.54
2018-02-13T00:23:46.096Z,961.56
2018-02-13T00:24:46.090Z,961.59
2018-02-13T00:25:46.076Z,961.61
2018-02-13T00:26:46.067Z,961.60
2018-02-13T00:27:46.078Z,961.56
2018-02-13T00:28:46.044Z,961.56
2018-02-13T00:29:46.037Z,961.60
2018-02-13T00:30:46.032Z,961.64
2018-02-13T00:31:46.017Z,961.60
2018-02-13T00:32:46.035Z,961.59
2018-02-13T00:33:45.997Z,961.59
2018-02-13T00:34:45.993Z,961.59
2018-02-13T00:35:45.974Z,961.57
2018-02-13T00:36:45.967Z,961.61
2018-02-13T00:37:45.956Z,961.61
2018-02-13T00:38:45.948Z,961.57
2018-02-13T00:39:45.940Z,961.61
2018-02-13T00:40:45.928Z,961.59
2018-02-13T00:41:45.927Z,961.60
2018-02-13T00:42:45.909Z,961.59
2018-02-13T00:43:45.895Z,961.59
2018-02-13T00:44:45.918Z,961.60
2018-02-13T00:45:45.876Z,961.60
2018-02-13T00:46:45.866Z,961.62
2018-02-13T00:47:45.863Z,961.59
2018-02-13T00:48:45.845Z,961.61
2018-02-13T00:49:45.835Z,961.58
2018-02-13T00:50:45.826Z,961.60
2018-02-13T00:51:45.819Z,961.56
2018-02-13T00:52:45.809Z,961.55
2018-02-13T00:53:45.804Z,961.56
2018-02-13T00:54:45.789Z,961.54
2018-02-13T00:55:45.775Z,961.62
2018-02-13T00:56:45.769Z,961.63
2018-02-13T00:57:45.763Z,961.67
2018-02-13T00:58:45.749Z,961.64
2018-02-13T00:59:45.738Z,961.66
2018-02-13T01:00:45.726Z,961.66
2018-02-13T01:01:45.715Z,961.71
2018-02-13T01:02:45.710Z,961.71
2018-02-13T01:03:45.695Z,961.68
2018-02-13T01:04:45.696Z,961.67
2018-02-13T01:05:45.735Z,961.70
2018-02-13T01:06:45.663Z,961.68
2018-02-13T01:07:45.658Z,961.66
2018-02-13T01:08:45.645Z,961.65
2018-02-13T01:09:45.638Z,961.68
2018-02-13T01:10:45.628Z,961.68
2018-02-13T01:11:45.616Z,961.69
2018-02-13T01:12:45.609Z,961.68
2018-02-13T01:13:45.594Z,961.70
2018-02-13T01:14:45.584Z,961.68
2018-02-13T01:15:45.576Z,961.69
2018-02-13T01:16:45.574Z,961.68
2018-02-13T01:17:45.554Z,961.66
2018-02-13T01:18:45.543Z,961.66
2018-02-13T01:19:45.533Z,961.68
2018-02-13T01:20:45.522Z,961.66
2018-02-13T01:21:45.518Z,961.69
2018-02-13T01:22:45.504Z,961.68
2018-02-13T01:23:45.506Z,961.68
2018-02-13T01:24:45.484Z,961.66
2018-02-13T01:25:45.476Z,961.70
2018-02-13T01:26:45.464Z,961.67
2018-02-13T01:27:45.454Z,961.71
2018-02-13T01:28:45.446Z,961.67
2018-02-13T01:29:45.437Z,961.65
2018-02-13T01:30:45.423Z,961.70
2018-02-13T01:31:45.412Z,961.74
2018-02-13T01:32:45.405Z,961.71
2018-02-13T01:33:45.393Z,961.70
2018-02-13T01:34:45.382Z,961.68
2018-02-13T01:35:45.404Z,961.67
2018-02-13T01:36:45.363Z,961.70
2018-02-13T01:37:45.352Z,961.67
2018-02-13T01:38:45.346Z,961.64
2018-02-13T01:39:45.338Z,961.68
2018-02-13T01:40:45.325Z,961.65
2018-02-13T01:41:45.317Z,961.67
2018-02-13T01:42:45.305Z,961.68
2018-02-13T01:43:45.291Z,961.67
2018-02-13T01:44:45.302Z,961.69
2018-02-13T01:45:45.271Z,961.69
2018-02-13T01:46:45.271Z,961.72
2018-02-13T01:47:45.255Z,961.70
2018-02-13T01:48:45.261Z,961.70
2018-02-13T01:49:45.233Z,961.70
2018-02-13T01:50:45.223Z,961.73
2018-02-13T01:51:45.211Z,961.72
2018-02-13T01:52:45.204Z,961.72
2018-02-13T01:53:45.195Z,961.71
2018-02-13T01:54:45.186Z,961.72
2018-02-13T01:55:45.174Z,961.76
2018-02-13T01:56:45.163Z,961.75
2018-02-13T01:57:45.151Z,961.71
2018-02-13T01:58:45.141Z,961.69
2018-02-13T01:59:45.137Z,961.70
2018-02-13T02:00:45.125Z,961.68
2018-02-13T02:01:45.130Z,961.69
2018-02-13T02:02:45.102Z,961.67
2018-02-13T02:03:45.094Z,961.71
2018-02-13T02:04:45.081Z,961.68
2018-02-13T02:05:45.083Z,961.72
2018-02-13T02:06:45.066Z,961.72
2018-02-13T02:07:45.051Z,961.63
2018-02-13T02:08:45.045Z,961.65
2018-02-13T02:09:45.036Z,961.66
2018-02-13T02:10:45.022Z,961.66
2018-02-13T02:11:45.015Z,961.64
2018-02-13T02:12:45.003Z,961.62
2018-02-13T02:13:44.992Z,961.64
2018-02-13T02:14:44.986Z,961.62
2018-02-13T02:15:45.005Z,961.63
2018-02-13T02:16:44.961Z,961.61
2018-02-13T02:17:44.956Z,961.60
2018-02-13T02:18:44.946Z,961.59
2018-02-13T02:19:44.933Z,961.63
2018-02-13T02:20:44.922Z,961.59
2018-02-13T02:21:44.925Z,961.57
2018-02-13T02:22:44.907Z,961.57
2018-02-13T02:23:44.895Z,961.58
2018-02-13T02:24:44.886Z,961.56
2018-02-13T02:25:44.876Z,961.57
2018-02-13T02:26:44.881Z,961.55
2018-02-13T02:27:44.862Z,961.58
2018-02-13T02:28:44.847Z,961.55
2018-02-13T02:29:44.841Z,961.61
2018-02-13T02:30:44.855Z,961.61
2018-02-13T02:31:44.815Z,961.58
2018-02-13T02:32:44.807Z,961.62
2018-02-13T02:33:44.813Z,961.61
2018-02-13T02:34:44.786Z,961.58
2018-02-13T02:35:44.779Z,961.64
2018-02-13T02:36:44.768Z,961.59
2018-02-13T02:37:44.760Z,961.64
2018-02-13T02:38:44.748Z,961.65
2018-02-13T02:39:44.743Z,961.61
2018-02-13T02:40:44.729Z,961.62
2018-02-13T02:41:44.726Z,961.62
2018-02-13T02:42:44.709Z,961.60
2018-02-13T02:43:44.702Z,961.61
2018-02-13T02:44:44.690Z,961.58
2018-02-13T02:45:44.678Z,961.61
2018-02-13T02:46:44.670Z,961.59
2018-02-13T02:47:44.661Z,961.60
2018-02-13T02:48:44.651Z,961.61
2018-02-13T02:49:44.638Z,961.60
2018-02-13T02:50:44.631Z,961.56
2018-02-13T02:51:44.622Z,961.58
2018-02-13T02:52:44.616Z,961.56
2018-02-13T02:53:44.604Z,961.56
2018-02-13T02:54:44.590Z,961.58
2018-02-13T02:55:44.583Z,961.55
2018-02-13T02:56:44.573Z,961.55
2018-02-13T02:57:44.563Z,961.54
2018-02-13T02:58:44.550Z,961.55
2018-02-13T02:59:44.540Z,961.54
2018-02-13T03:00:44.537Z,961.54
2018-02-13T03:01:44.534Z,961.58
2018-02-13T03:02:44.513Z,961.55
2018-02-13T03:03:44.506Z,961.51
2018-02-13T03:04:44.497Z,961.53
2018-02-13T03:05:44.483Z,961.51
2018-02-13T03:06:44.471Z,961.47
2018-02-13T03:07:44.465Z,961.49
2018-02-13T03:08:44.459Z,961.51
2018-02-13T03:09:44.446Z,961.50
2018-02-13T03:10:44.433Z,961.49
2018-02-13T03:11:44.424Z,961.51
2018-02-13T03:12:44.416Z,961.49
2018-02-13T03:13:44.409Z,961.48
2018-02-13T03:14:44.418Z,961.52
2018-02-13T03:15:44.409Z,961.50
2018-02-13T03:16:44.376Z,961.50
2018-02-13T03:17:44.366Z,961.51
2018-02-13T03:18:44.357Z,961.49
2018-02-13T03:19:44.346Z,961.54
2018-02-13T03:20:44.336Z,961.46
2018-02-13T03:21:44.357Z,961.50
2018-02-13T03:22:44.323Z,961.52
2018-02-13T03:23:44.307Z,961.52
2018-02-13T03:24:44.301Z,961.50
2018-02-13T03:25:44.290Z,961.56
2018-02-13T03:26:44.280Z,961.50
2018-02-13T03:27:44.304Z,961.56
2018-02-13T03:28:44.262Z,961.55
2018-02-13T03:29:44.263Z,961.52
2018-02-13T03:30:44.240Z,961.54
2018-02-13T03:31:44.285Z,961.55
2018-02-13T03:32:44.254Z,961.52
2018-02-13T03:33:44.210Z,961.52
2018-02-13T03:34:44.212Z,961.50
2018-02-13T03:35:44.193Z,961.53
2018-02-13T03:36:44.177Z,961.52
2018-02-13T03:37:45.912Z,961.51
2018-02-13T03:38:44.156Z,961.54
2018-02-13T03:39:44.158Z,961.53
2018-02-13T03:40:44.162Z,961.51
2018-02-13T03:41:44.130Z,961.52
2018-02-13T03:42:44.118Z,961.52
2018-02-13T03:43:44.107Z,961.55
2018-02-13T03:44:44.101Z,961.54
2018-02-13T03:45:44.132Z,961.57
2018-02-13T03:46:44.106Z,961.57
2018-02-13T03:47:45.913Z,961.56
2018-02-13T03:48:44.059Z,961.51
2018-02-13T03:49:44.044Z,961.52
2018-02-13T03:50:44.040Z,961.53
2018-02-13T03:51:44.026Z,961.52
2018-02-13T03:52:44.019Z,961.46
2018-02-13T03:53:44.005Z,961.50
2018-02-13T03:54:43.995Z,961.50
2018-02-13T03:55:43.987Z,961.45
2018-02-13T03:56:45.916Z,961.46
2018-02-13T03:57:44.012Z,961.51
2018-02-13T03:58:43.954Z,961.46
2018-02-13T03:59:43.942Z,961.49
2018-02-13T04:00:43.933Z,961.48
2018-02-13T04:01:43.928Z,961.44
2018-02-13T04:02:43.912Z,961.44
2018-02-13T04:03:43.909Z,961.42
2018-02-13T04:04:43.890Z,961.40
2018-02-13T04:05:43.884Z,961.43
2018-02-13T04:06:43.872Z,961.46
2018-02-13T04:07:43.862Z,961.44
2018-02-13T04:08:43.852Z,961.47
2018-02-13T04:09:43.843Z,961.51
2018-02-13T04:10:43.830Z,961.50
2018-02-13T04:11:43.823Z,961.53
2018-02-13T04:12:43.812Z,961.48
2018-02-13T04:13:43.801Z,961.49
2018-02-13T04:14:43.789Z,961.54
2018-02-13T04:15:43.780Z,961.58
2018-02-13T04:16:43.778Z,961.55
2018-02-13T04:17:43.756Z,961.46
2018-02-13T04:18:43.749Z,961.51
2018-02-13T04:19:43.758Z,961.50
2018-02-13T04:20:43.732Z,961.48
2018-02-13T04:21:43.722Z,961.48
2018-02-13T04:22:43.712Z,961.47
2018-02-13T04:23:43.699Z,961.50
2018-02-13T04:24:43.691Z,961.48
2018-02-13T04:25:43.676Z,961.53
2018-02-13T04:26:43.665Z,961.50
2018-02-13T04:27:43.661Z,961.50
2018-02-13T04:28:43.649Z,961.51
2018-02-13T04:29:43.641Z,961.49
2018-02-13T04:30:43.628Z,961.51
2018-02-13T04:31:43.618Z,961.50
2018-02-13T04:32:43.633Z,961.48
2018-02-13T04:33:43.595Z,961.50
2018-02-13T04:34:43.580Z,961.53
2018-02-13T04:35:43.575Z,961.50
2018-02-13T04:36:43.564Z,961.52
2018-02-13T04:37:43.556Z,961.55
2018-02-13T04:38:43.540Z,961.53
2018-02-13T04:39:43.534Z,961.50
2018-02-13T04:40:43.523Z,961.50
2018-02-13T04:41:43.509Z,961.48
2018-02-13T04:42:43.498Z,961.48
2018-02-13T04:43:43.492Z,961.45
2018-02-13T04:44:43.480Z,961.51
2018-02-13T04:45:43.468Z,961.43
2018-02-13T04:46:45.413Z,961.41
2018-02-13T04:47:43.453Z,961.50
2018-02-13T04:48:43.435Z,961.47
2018-02-13T04:49:43.438Z,961.50
2018-02-13T04:50:43.455Z,961.47
2018-02-13T04:51:52.209Z,961.51
2018-02-13T04:53:37.901Z,961.45
2018-02-13T04:54:37.828Z,961.42
2018-02-13T04:56:32.248Z,961.44
2018-02-13T04:57:32.168Z,961.43
2018-02-13T04:59:26.577Z,961.43
2018-02-13T05:00:26.547Z,961.41
2018-02-13T05:02:20.979Z,961.43
2018-02-13T05:03:20.967Z,961.44
2018-02-13T05:05:15.121Z,961.43
2018-02-13T05:06:15.185Z,961.45
2018-02-13T05:08:10.533Z,961.46
2018-02-13T05:09:10.640Z,961.43
2018-02-13T05:11:04.864Z,961.46
2018-02-13T05:12:05.191Z,961.43
2018-02-13T05:13:59.227Z,961.38
2018-02-13T05:14:59.209Z,961.45
2018-02-13T05:16:53.578Z,961.48
2018-02-13T05:17:53.625Z,961.44
2018-02-13T05:18:53.584Z,961.45
2018-02-13T05:19:54.103Z,961.44
2018-02-13T05:20:53.421Z,961.46
2018-02-13T05:21:53.379Z,961.41
2018-02-13T05:22:53.373Z,961.38
2018-02-13T05:23:53.366Z,961.43
2018-02-13T05:24:53.353Z,961.40
2018-02-13T05:25:53.339Z,961.41
2018-02-13T05:26:54.018Z,961.37
2018-02-13T05:27:53.320Z,961.42
2018-02-13T05:28:53.308Z,961.35
2018-02-13T05:29:54.008Z,961.36
2018-02-13T05:30:53.284Z,961.38
2018-02-13T05:31:53.275Z,961.34
2018-02-13T05:32:53.265Z,961.36
2018-02-13T05:33:53.257Z,961.37
2018-02-13T05:34:53.241Z,961.37
2018-02-13T05:35:53.232Z,961.33
2018-02-13T05:36:53.229Z,961.31
2018-02-13T05:37:53.206Z,961.35
2018-02-13T05:38:53.197Z,961.37
2018-02-13T05:39:53.194Z,961.37
2018-02-13T05:40:53.180Z,961.40
2018-02-13T05:41:53.174Z,961.36
2018-02-13T05:42:53.154Z,961.38
2018-02-13T05:43:53.141Z,961.37
2018-02-13T05:44:53.131Z,961.42
2018-02-13T05:45:53.136Z,961.38
2018-02-13T05:46:53.117Z,961.38
2018-02-13T05:47:52.133Z,961.34
2018-02-13T05:48:52.065Z,961.38
2018-02-13T05:50:46.782Z,961.37
2018-02-13T05:51:46.755Z,961.37
2018-02-13T05:53:40.976Z,961.37
2018-02-13T05:54:40.987Z,961.40
2018-02-13T05:55:40.791Z,961.39
2018-02-13T05:56:40.756Z,961.38
2018-02-13T05:57:40.718Z,961.39
2018-02-13T05:58:40.710Z,961.37
2018-02-13T05:59:40.691Z,961.38
2018-02-13T06:00:40.697Z,961.39
2018-02-13T06:01:40.679Z,961.34
2018-02-13T06:02:40.662Z,961.39
2018-02-13T06:03:40.655Z,961.40
2018-02-13T06:04:40.638Z,961.38
2018-02-13T06:05:40.630Z,961.42
2018-02-13T06:06:40.657Z,961.40
2018-02-13T06:07:40.637Z,961.44
2018-02-13T06:08:40.600Z,961.42
2018-02-13T06:09:40.589Z,961.44
2018-02-13T06:10:40.575Z,961.42
2018-02-13T06:11:40.560Z,961.42
2018-02-13T06:12:40.552Z,961.39
2018-02-13T06:13:40.541Z,961.42
2018-02-13T06:14:40.529Z,961.44
2018-02-13T06:15:40.513Z,961.43
2018-02-13T06:16:40.527Z,961.41
2018-02-13T06:17:40.495Z,961.41
2018-02-13T06:18:40.482Z,961.42
2018-02-13T06:19:40.500Z,961.40
2018-02-13T06:20:40.480Z,961.41
2018-02-13T06:21:40.455Z,961.40
2018-02-13T06:22:40.433Z,961.40
2018-02-13T06:23:40.429Z,961.41
2018-02-13T06:24:40.412Z,961.41
2018-02-13T06:25:40.406Z,961.40
2018-02-13T06:26:40.392Z,961.40
2018-02-13T06:27:40.392Z,961.36
2018-02-13T06:28:40.366Z,961.38
2018-02-13T06:29:40.357Z,961.38
2018-02-13T06:30:40.342Z,961.37
2018-02-13T06:31:40.336Z,961.38
2018-02-13T06:32:40.326Z,961.37
2018-02-13T06:33:40.316Z,961.36
2018-02-13T06:34:40.313Z,961.36
2018-02-13T06:35:40.292Z,961.37
2018-02-13T06:36:40.314Z,961.31
2018-02-13T06:37:40.269Z,961.35
2018-02-13T06:38:40.257Z,961.31
2018-02-13T06:39:40.245Z,961.35
2018-02-13T06:40:40.247Z,961.34
2018-02-13T06:41:40.222Z,961.35
2018-02-13T06:42:40.235Z,961.34
2018-02-13T06:43:40.201Z,961.37
2018-02-13T06:44:40.211Z,961.41
2018-02-13T06:45:40.178Z,961.39
2018-02-13T06:46:40.167Z,961.36
2018-02-13T06:47:40.157Z,961.38
2018-02-13T06:48:40.152Z,961.35
2018-02-13T06:49:40.134Z,961.39
2018-02-13T06:50:40.118Z,961.42
2018-02-13T06:51:40.111Z,961.35
2018-02-13T06:52:40.101Z,961.40
2018-02-13T06:53:40.085Z,961.36
2018-02-13T06:54:40.074Z,961.36
2018-02-13T06:55:40.064Z,961.36
2018-02-13T06:56:40.060Z,961.36
2018-02-13T06:57:40.046Z,961.39
2018-02-13T06:58:40.031Z,961.39
2018-02-13T06:59:40.016Z,961.38
2018-02-13T07:00:40.012Z,961.42
2018-02-13T07:01:39.996Z,961.38
2018-02-13T07:02:39.988Z,961.42
2018-02-13T07:03:39.979Z,961.39
2018-02-13T07:04:39.965Z,961.39
2018-02-13T07:05:39.988Z,961.40
2018-02-13T07:06:39.941Z,961.44
2018-02-13T07:07:39.967Z,961.44
2018-02-13T07:08:39.925Z,961.46
2018-02-13T07:09:39.911Z,961.48
2018-02-13T07:10:39.896Z,961.48
2018-02-13T07:11:39.889Z,961.52
2018-02-13T07:12:39.881Z,961.62
2018-02-13T07:13:39.868Z,961.68
2018-02-13T07:14:39.858Z,961.64
2018-02-13T07:15:39.845Z,961.66
2018-02-13T07:16:39.854Z,961.63
2018-02-13T07:17:39.826Z,961.63
2018-02-13T07:18:39.818Z,961.69
2018-02-13T07:19:39.814Z,961.81
2018-02-13T07:22:37.657Z,961.76
2018-02-13T07:23:38.259Z,961.81
2018-02-13T07:25:32.849Z,961.78
2018-02-13T07:26:32.727Z,961.65
2018-02-13T07:27:32.669Z,961.55
2018-02-13T07:28:32.645Z,961.50
2018-02-13T07:29:32.663Z,961.46
2018-02-13T07:30:32.541Z,961.51
2018-02-13T07:31:32.548Z,961.50
2018-02-13T07:32:32.521Z,961.50
2018-02-13T07:33:32.519Z,961.50
2018-02-13T07:34:32.511Z,961.50
2018-02-13T07:35:32.505Z,961.46
2018-02-13T07:36:32.506Z,961.45
2018-02-13T07:37:32.491Z,961.49
2018-02-13T07:38:32.730Z,961.43
2018-02-13T07:39:32.477Z,961.49
2018-02-13T07:42:04.539Z,961.46
2018-02-13T07:43:00.561Z,961.47
2018-02-13T07:44:01.419Z,961.50
2018-02-13T07:45:00.419Z,961.50
2018-02-13T07:46:00.402Z,961.49
2018-02-13T07:47:00.304Z,961.43
2018-02-13T07:48:00.239Z,961.43
2018-02-13T07:49:00.386Z,961.45
2018-02-13T07:50:00.217Z,961.43
2018-02-13T07:51:01.867Z,961.42
2018-02-13T07:52:00.281Z,961.38
2018-02-13T07:53:01.280Z,961.37
2018-02-13T07:54:01.827Z,961.43
2018-02-13T07:55:00.191Z,961.39
2018-02-13T07:56:00.252Z,961.38
2018-02-13T07:57:01.880Z,961.41
2018-02-13T07:58:01.753Z,961.38
2018-02-13T07:59:00.190Z,961.37
2018-02-13T08:00:00.193Z,961.36
2018-02-13T08:01:00.154Z,961.41
2018-02-13T08:02:00.139Z,961.41
2018-02-13T08:03:00.204Z,961.40
2018-02-13T08:04:00.138Z,961.48
2018-02-13T08:05:01.756Z,961.42
2018-02-13T08:06:01.778Z,961.43
2018-02-13T08:07:01.815Z,961.39
2018-02-13T08:08:00.058Z,961.43
2018-02-13T08:09:01.841Z,961.41
2018-02-13T08:10:01.781Z,961.38
2018-02-13T08:11:00.133Z,961.39
2018-02-13T08:12:01.852Z,961.34
2018-02-13T08:13:00.057Z,961.39
2018-02-13T08:14:00.009Z,961.45
2018-02-13T08:15:08.877Z,961.39
2018-02-13T08:16:54.669Z,961.40
2018-02-13T08:17:54.384Z,961.38
2018-02-13T08:19:48.797Z,961.38
2018-02-13T08:20:48.751Z,961.38
2018-02-13T08:22:43.158Z,961.36
2018-02-13T08:23:43.137Z,961.37
2018-02-13T08:25:38.509Z,961.55
2018-02-13T08:26:38.849Z,961.80
2018-02-13T08:28:32.994Z,961.96
2018-02-13T08:29:32.984Z,961.83
2018-02-13T08:31:31.017Z,962.07
2018-02-13T08:32:29.595Z,962.00
2018-02-13T08:33:28.909Z,961.82
2018-02-13T08:34:27.147Z,961.82
2018-02-13T08:35:27.151Z,962.00
2018-02-13T08:36:27.084Z,962.05
2018-02-13T08:37:27.016Z,962.10
2018-02-13T08:38:27.012Z,961.92
2018-02-13T08:39:27.001Z,961.99
2018-02-13T08:40:27.008Z,962.17
2018-02-13T08:41:27.012Z,962.25
2018-02-13T08:42:27.010Z,962.27
2018-02-13T08:43:26.981Z,962.27
2018-02-13T08:44:26.978Z,962.26
2018-02-13T08:45:26.973Z,962.27
2018-02-13T08:46:26.967Z,962.14
2018-02-13T08:47:26.985Z,962.21
2018-02-13T08:48:26.966Z,962.26
2018-02-13T08:49:26.970Z,962.36
2018-02-13T08:50:26.965Z,962.35
2018-02-13T08:51:26.959Z,962.34
2018-02-13T08:52:26.998Z,962.30
2018-02-13T08:53:26.955Z,962.05
2018-02-13T08:54:26.951Z,962.16
2018-02-13T08:55:26.950Z,962.40
2018-02-13T08:56:26.983Z,962.43
2018-02-13T08:57:26.947Z,962.40
2018-02-13T08:58:26.971Z,962.40
2018-02-13T08:59:26.949Z,962.41
2018-02-13T09:00:26.950Z,962.48
2018-02-13T09:01:26.956Z,962.43
2018-02-13T09:02:26.949Z,962.39
2018-02-13T09:03:26.952Z,962.27
2018-02-13T09:04:26.955Z,962.29
2018-02-13T09:05:26.953Z,962.39
2018-02-13T09:06:26.954Z,962.35
2018-02-13T09:07:26.956Z,962.41
2018-02-13T09:08:26.960Z,962.27
2018-02-13T09:09:26.961Z,962.23
2018-02-13T09:10:27.004Z,962.35
2018-02-13T09:11:26.965Z,962.47
2018-02-13T09:12:26.969Z,962.47
2018-02-13T09:13:26.977Z,962.44
2018-02-13T09:14:26.996Z,962.41
2018-02-13T09:15:28.608Z,962.42
2018-02-13T09:16:26.995Z,962.36
2018-02-13T09:17:27.052Z,962.42
2018-02-13T09:18:27.001Z,962.40
2018-02-13T09:22:34.069Z,962.44
2018-02-13T09:23:35.467Z,962.43
2018-02-13T09:24:33.822Z,962.37
2018-02-13T09:25:35.363Z,962.36
2018-02-13T09:26:34.859Z,962.40
2018-02-13T09:27:33.815Z,962.38
2018-02-13T09:28:33.818Z,962.35
2018-02-13T09:29:33.879Z,962.33
2018-02-13T09:30:33.884Z,962.33
2018-02-13T09:31:33.794Z,962.37
2018-02-13T09:32:33.913Z,962.31
2018-02-13T09:33:33.802Z,962.34
2018-02-13T09:34:33.814Z,962.27
2018-02-13T09:35:33.816Z,962.35
2018-02-13T09:36:33.821Z,962.31
2018-02-13T09:37:33.856Z,962.33
2018-02-13T09:38:33.833Z,962.27
2018-02-13T09:39:33.841Z,962.27
2018-02-13T09:40:33.905Z,962.28
2018-02-13T09:41:33.854Z,962.21
2018-02-13T09:42:33.858Z,962.23
2018-02-13T09:43:33.866Z,962.22
2018-02-13T09:44:33.873Z,962.17
2018-02-13T09:45:33.883Z,962.17
2018-02-13T09:46:33.882Z,962.17
2018-02-13T09:47:33.895Z,962.14
2018-02-13T09:48:33.909Z,962.13
2018-02-13T09:49:33.906Z,962.08
2018-02-13T09:50:33.909Z,962.11
2018-02-13T09:51:33.922Z,962.08
2018-02-13T09:52:34.251Z,962.10
2018-02-13T09:53:33.942Z,962.11
2018-02-13T09:54:33.940Z,962.08
2018-02-13T09:55:33.956Z,962.09
2018-02-13T09:56:33.965Z,962.11
2018-02-13T09:57:33.964Z,962.10
2018-02-13T09:58:35.834Z,962.12
2018-02-13T09:59:33.975Z,962.11
2018-02-13T10:00:33.982Z,962.10
2018-02-13T10:01:33.988Z,962.08
2018-02-13T10:02:33.996Z,962.14
2018-02-13T10:03:34.003Z,962.07
2018-02-13T10:04:34.011Z,962.11
2018-02-13T10:05:34.023Z,962.13
2018-02-13T10:06:34.027Z,962.14
2018-02-13T10:07:34.035Z,962.08
2018-02-13T10:08:34.075Z,962.07
2018-02-13T10:09:34.050Z,962.11
2018-02-13T10:10:34.058Z,962.09
2018-02-13T10:11:34.067Z,962.07
2018-02-13T10:12:34.076Z,962.10
2018-02-13T10:13:34.084Z,962.03
2018-02-13T10:14:34.091Z,962.07
2018-02-13T10:15:34.101Z,962.11
2018-02-13T10:16:34.111Z,962.08
2018-02-13T10:17:34.117Z,962.06
2018-02-13T10:18:34.125Z,962.08
2018-02-13T10:19:34.135Z,962.07
2018-02-13T10:20:34.144Z,962.04
2018-02-13T10:21:34.152Z,962.09
2018-02-13T10:22:34.160Z,962.08
2018-02-13T10:23:34.169Z,962.00
2018-02-13T10:24:34.181Z,962.02
2018-02-13T10:25:34.187Z,962.00
2018-02-13T10:26:34.196Z,962.01
2018-02-13T10:27:34.216Z,962.00
2018-02-13T10:28:34.215Z,962.00
2018-02-13T10:29:34.225Z,962.01
2018-02-13T10:30:34.239Z,961.96
2018-02-13T10:31:34.244Z,961.92
2018-02-13T10:32:34.254Z,961.98
2018-02-13T10:33:34.263Z,961.95
2018-02-13T10:34:34.275Z,961.94
2018-02-13T10:35:34.281Z,961.90
2018-02-13T10:36:34.292Z,961.78
2018-02-13T10:37:34.300Z,961.57
2018-02-13T10:38:34.336Z,961.39
2018-02-13T10:39:34.319Z,961.33
2018-02-13T10:40:34.333Z,961.30
2018-02-13T10:41:34.338Z,961.26
2018-02-13T10:42:34.354Z,961.22
2018-02-13T10:43:34.356Z,961.25
2018-02-13T10:44:34.365Z,961.24
2018-02-13T10:45:34.376Z,961.18
2018-02-13T10:46:34.384Z,961.16
2018-02-13T10:47:34.392Z,961.04
2018-02-13T10:48:34.404Z,961.10
2018-02-13T10:49:34.410Z,961.06
2018-02-13T10:50:34.415Z,961.03
2018-02-13T10:51:34.423Z,961.02
2018-02-13T10:52:34.432Z,961.02
2018-02-13T10:53:34.445Z,961.01
2018-02-13T10:54:34.439Z,960.98
2018-02-13T10:55:34.464Z,960.94
2018-02-13T10:56:34.455Z,960.96
2018-02-13T10:57:34.461Z,960.94
2018-02-13T10:58:34.460Z,960.92
2018-02-13T10:59:34.462Z,960.95
2018-02-13T11:00:34.472Z,960.93
2018-02-13T11:01:34.471Z,960.91
2018-02-13T11:02:34.474Z,960.88
2018-02-13T11:03:34.475Z,960.86
2018-02-13T11:04:34.528Z,960.84
2018-02-13T11:05:34.480Z,960.86
2018-02-13T11:06:34.483Z,960.81
2018-02-13T11:07:34.478Z,960.85
2018-02-13T11:08:34.485Z,960.80
2018-02-13T11:09:34.479Z,960.80
2018-02-13T11:10:34.494Z,960.79
2018-02-13T11:11:37.596Z,960.76
2018-02-13T11:12:34.558Z,960.72
2018-02-13T11:13:34.757Z,960.79
2018-02-13T11:14:34.536Z,960.72
2018-02-13T11:15:34.484Z,960.64
2018-02-13T11:16:34.481Z,960.69
2018-02-13T11:17:36.681Z,960.70
2018-02-13T11:18:34.530Z,960.64
2018-02-13T11:19:34.485Z,960.67
2018-02-13T11:20:34.477Z,960.65
2018-02-13T11:21:34.478Z,960.71
2018-02-13T11:22:34.475Z,960.58
2018-02-13T11:23:34.471Z,960.61
2018-02-13T11:24:34.472Z,960.62
2018-02-13T11:25:34.472Z,960.60
2018-02-13T11:26:34.470Z,960.62
2018-02-13T11:27:34.466Z,960.57
2018-02-13T11:28:34.467Z,960.58
2018-02-13T11:29:34.466Z,960.58
2018-02-13T11:30:34.461Z,960.54
2018-02-13T11:31:34.494Z,960.55
2018-02-13T11:32:34.468Z,960.55
2018-02-13T11:33:34.461Z,960.51
2018-02-13T11:34:34.457Z,960.52
2018-02-13T11:35:34.450Z,960.49
2018-02-13T11:36:34.449Z,960.49
2018-02-13T11:37:34.450Z,960.53
2018-02-13T11:38:34.445Z,960.45
2018-02-13T11:39:34.606Z,960.43
2018-02-13T11:40:34.513Z,960.41
2018-02-13T11:41:36.399Z,960.35
2018-02-13T11:42:36.418Z,960.37
2018-02-13T11:43:34.513Z,960.39
2018-02-13T11:44:37.400Z,960.36
2018-02-13T11:45:34.618Z,960.40
2018-02-13T11:46:34.427Z,960.36
2018-02-13T11:47:34.425Z,960.38
2018-02-13T11:48:34.427Z,960.38
2018-02-13T11:49:34.420Z,960.42
2018-02-13T11:50:34.418Z,960.37
2018-02-13T11:51:34.433Z,960.39
2018-02-13T11:52:34.413Z,960.33
2018-02-13T11:53:34.411Z,960.32
2018-02-13T11:54:34.404Z,960.32
2018-02-13T11:55:34.428Z,960.31
2018-02-13T11:56:36.560Z,960.30
2018-02-13T11:57:34.399Z,960.29
2018-02-13T11:58:34.396Z,960.28
2018-02-13T11:59:34.457Z,960.26
2018-02-13T12:00:34.845Z,960.24
2018-02-13T12:04:56.459Z,960.25
2018-02-13T12:05:56.273Z,960.24
2018-02-13T12:07:50.703Z,960.25
2018-02-13T12:08:51.119Z,960.22
2018-02-13T12:10:44.830Z,960.18
2018-02-13T12:11:45.064Z,960.22
2018-02-13T12:12:45.053Z,960.27
2018-02-13T12:13:44.985Z,960.23
2018-02-13T12:14:45.047Z,960.20
2018-02-13T12:15:44.920Z,960.23
2018-02-13T12:16:44.869Z,960.21
2018-02-13T12:17:44.938Z,960.19
2018-02-13T12:18:44.997Z,960.13
2018-02-13T12:19:55.708Z,960.15
2018-02-13T12:20:44.810Z,960.13
2018-02-13T12:21:45.162Z,960.12
2018-02-13T12:26:57.507Z,960.09
2018-02-13T12:27:54.170Z,960.06
2018-02-13T12:29:50.445Z,960.15
2018-02-13T12:30:50.064Z,960.14
2018-02-13T12:31:49.446Z,960.11
2018-02-13T12:32:49.602Z,960.07
2018-02-13T12:33:49.465Z,960.09
2018-02-13T12:34:49.395Z,960.04
2018-02-13T12:35:49.480Z,960.02
2018-02-13T12:36:49.338Z,960.07
2018-02-13T12:37:49.298Z,960.03
2018-02-13T12:38:49.294Z,960.00
2018-02-13T12:39:49.285Z,960.06
2018-02-13T12:40:49.291Z,959.99
2018-02-13T12:41:49.279Z,959.93
2018-02-13T12:42:49.454Z,959.92
2018-02-13T12:43:49.267Z,959.95
2018-02-13T12:44:49.269Z,959.93
2018-02-13T12:45:49.331Z,959.90
2018-02-13T12:46:49.256Z,959.90
2018-02-13T12:47:49.255Z,959.88
2018-02-13T12:48:49.249Z,959.89
2018-02-13T12:49:49.242Z,959.86
2018-02-13T12:50:49.237Z,959.86
2018-02-13T12:51:49.313Z,959.81
2018-02-13T12:52:49.265Z,959.76
2018-02-13T12:53:49.227Z,959.77
2018-02-13T12:54:49.313Z,959.80
2018-02-13T12:55:49.217Z,959.81
2018-02-13T12:56:49.210Z,959.78
2018-02-13T12:57:49.474Z,959.78
2018-02-13T12:58:49.303Z,959.81
2018-02-13T12:59:49.203Z,959.76
2018-02-13T13:00:49.245Z,959.78
2018-02-13T13:01:49.259Z,959.79